Time;durP1;ratioP1;P1;durP2;ratioP2;P2;SDS_P1;SDS_P2;PMS_P1;PMS_P2;Temp;Humidity;BMP_temperature;BMP_pressure;BME280_temperature;BME280_humidity;BME280_pressure;Samples;Min_cycle;Max_cycle;Signal;HPM_P1;HPM_P2
2023/11/20 00:01:05;;;;;;;;;;;8.60;99.90;;;;;;5082133;28;20060;-63
2023/11/20 00:03:31;;;;;;;0.20;0.20;;;8.70;99.90;;;;;;5081788;28;19920;-63
2023/11/20 00:05:57;;;;;;;1.05;0.25;;;8.60;99.90;;;;;;5080745;28;20035;-64
2023/11/20 00:08:23;;;;;;;;;;;8.60;99.90;;;;;;5080050;28;20086;-61
2023/11/20 00:10:49;;;;;;;0.57;0.40;;;8.60;99.90;;;;;;5079204;28;19955;-63
2023/11/20 00:13:15;;;;;;;;;;;8.70;99.90;;;;;;5072420;28;20075;-63
2023/11/20 00:15:41;;;;;;;0.35;0.30;;;8.70;99.90;;;;;;5080048;28;19938;-64
2023/11/20 00:18:06;;;;;;;;;;;8.60;99.90;;;;;;5069821;28;20037;-63
2023/11/20 00:20:32;;;;;;;1.87;0.23;;;8.60;99.90;;;;;;5070285;28;19982;-63
2023/11/20 00:22:58;;;;;;;;;;;8.60;99.90;;;;;;5064064;28;20040;-62
2023/11/20 00:25:23;;;;;;;0.38;0.30;;;8.60;99.90;;;;;;5064200;28;19999;-63
2023/11/20 00:27:50;;;;;;;;;;;8.60;99.90;;;;;;5063568;28;20037;-63
2023/11/20 00:30:16;;;;;;;3.08;0.40;;;8.70;99.90;;;;;;5061410;28;20384;-63
2023/11/20 00:32:42;;;;;;;0.88;0.40;;;8.70;99.90;;;;;;5061183;28;20024;-62
2023/11/20 00:35:10;;;;;;;;;;;8.60;99.90;;;;;;5066764;28;20088;-63
2023/11/20 00:37:35;;;;;;;1.45;0.50;;;8.60;99.90;;;;;;5065950;28;19964;-62
2023/11/20 00:40:01;;;;;;;;;;;8.70;99.90;;;;;;5064050;28;20631;-64
2023/11/20 00:42:26;;;;;;;1.67;0.50;;;8.70;99.90;;;;;;5065275;28;20304;-63
2023/11/20 00:44:52;;;;;;;2.25;0.70;;;8.70;99.90;;;;;;5065818;28;20029;-63
2023/11/20 00:47:18;;;;;;;;;;;8.70;99.90;;;;;;5065254;28;20041;-64
2023/11/20 00:49:44;;;;;;;3.45;0.70;;;8.70;99.90;;;;;;5066150;28;20007;-64
2023/11/20 00:52:10;;;;;;;2.15;0.65;;;8.70;99.90;;;;;;5063863;28;20816;-63
2023/11/20 00:54:35;;;;;;;;;;;8.70;99.90;;;;;;5066975;28;20044;-63
2023/11/20 00:57:01;;;;;;;0.70;0.35;;;8.70;99.90;;;;;;5065665;28;19920;-63
2023/11/20 00:59:27;;;;;;;2.20;0.50;;;8.70;99.90;;;;;;5064602;28;20144;-64
2023/11/20 01:01:52;;;;;;;;;;;8.70;99.90;;;;;;5062880;28;20048;-64
2023/11/20 01:04:18;;;;;;;2.17;0.77;;;8.70;99.90;;;;;;5063945;28;20014;-63
2023/11/20 01:06:44;;;;;;;3.30;0.57;;;8.70;99.90;;;;;;5061986;28;20114;-65
2023/11/20 01:09:10;;;;;;;;;;;8.70;99.90;;;;;;5069286;28;20505;-65
2023/11/20 01:11:36;;;;;;;3.73;0.60;;;8.70;99.90;;;;;;5057064;28;19923;-62
2023/11/20 01:14:04;;;;;;;2.25;0.43;;;8.70;99.90;;;;;;5062059;28;20042;-63
2023/11/20 01:16:29;;;;;;;6.63;0.75;;;8.70;99.90;;;;;;5063992;28;20540;-64
2023/11/20 01:18:55;;;;;;;;;;;8.70;99.90;;;;;;5065244;28;20093;-63
2023/11/20 01:21:21;;;;;;;2.78;1.15;;;8.70;99.90;;;;;;5060927;28;20653;-64
2023/11/20 01:23:46;;;;;;;;;;;8.70;99.90;;;;;;5063758;28;20048;-63
2023/11/20 01:26:12;;;;;;;2.65;0.70;;;8.70;99.90;;;;;;5066393;28;19924;-63
2023/11/20 01:28:38;;;;;;;3.83;0.60;;;8.70;99.90;;;;;;5064402;28;20649;-63
2023/11/20 01:31:04;;;;;;;;;;;8.70;99.90;;;;;;5060082;28;20052;-63
2023/11/20 01:33:29;;;;;;;6.72;1.08;;;8.70;99.90;;;;;;5062190;28;20787;-62
2023/11/20 01:35:55;;;;;;;;;;;8.70;99.90;;;;;;5061277;28;20210;-63
2023/11/20 01:38:21;;;;;;;4.43;0.93;;;8.60;99.90;;;;;;5056591;28;20526;-63
2023/11/20 01:40:53;;;;;;;2.72;0.90;;;8.60;99.90;;;;;;5058525;28;20075;-63
2023/11/20 01:43:19;;;;;;;2.53;0.80;;;8.60;99.90;;;;;;5059703;28;20508;-63
2023/11/20 01:45:45;;;;;;;;;;;8.60;99.90;;;;;;5065187;28;20063;-64
2023/11/20 01:48:10;;;;;;;5.97;1.10;;;8.60;99.90;;;;;;5063860;28;19920;-64
2023/11/20 01:50:36;;;;;;;;;;;8.60;99.90;;;;;;5064275;28;20283;-64
2023/11/20 01:53:04;;;;;;;2.58;1.00;;;8.60;99.90;;;;;;5058158;28;20416;-63
2023/11/20 01:55:30;;;;;;;3.75;0.90;;;8.60;99.90;;;;;;5065059;28;20147;-64
2023/11/20 01:57:56;;;;;;;;;;;8.60;99.90;;;;;;5062788;28;20071;-64
2023/11/20 02:00:22;;;;;;;2.78;1.05;;;8.60;99.90;;;;;;5060980;28;20111;-64
2023/11/20 02:02:49;;;;;;;2.63;1.00;;;8.60;99.90;;;;;;5061018;28;20720;-63
2023/11/20 02:05:15;;;;;;;5.53;1.17;;;8.60;99.90;;;;;;5066160;28;20032;-63
2023/11/20 02:07:41;;;;;;;;;;;8.60;99.90;;;;;;5061533;28;20739;-63
2023/11/20 02:10:07;;;;;;;5.47;1.23;;;8.60;99.90;;;;;;5062894;28;20032;-63
2023/11/20 02:12:34;;;;;;;4.55;1.30;;;8.60;99.90;;;;;;5058974;28;20051;-63
2023/11/20 02:14:59;;;;;;;6.45;1.80;;;8.60;99.90;;;;;;5068897;28;20076;-63
2023/11/20 02:17:25;;;;;;;;;;;8.60;99.90;;;;;;5064952;28;20071;-63
2023/11/20 02:19:52;;;;;;;4.05;1.40;;;8.60;99.90;;;;;;5062169;28;19927;-63
2023/11/20 02:22:20;;;;;;;3.95;1.38;;;8.60;99.90;;;;;;5054732;28;20040;-64
2023/11/20 02:24:46;;;;;;;8.00;1.60;;;8.60;99.90;;;;;;5056344;28;20032;-64
2023/11/20 02:27:34;;;;;;;6.72;1.70;;;8.70;99.90;;;;;;5060677;28;20036;-61
2023/11/20 02:30:03;;;;;;;3.08;1.55;;;8.60;99.90;;;;;;5049930;28;20047;-64
2023/11/20 02:32:29;;;;;;;6.57;2.20;;;8.60;99.90;;;;;;5059202;28;20063;-64
2023/11/20 02:34:55;;;;;;;6.90;1.83;;;8.70;99.90;;;;;;5059583;28;20040;-63
2023/11/20 02:37:21;;;;;;;;;;;8.60;99.90;;;;;;5062078;28;20749;-63
2023/11/20 02:39:48;;;;;;;10.23;1.70;;;8.60;99.90;;;;;;5061039;28;20034;-64
2023/11/20 02:42:15;;;;;;;6.30;2.05;;;8.60;99.90;;;;;;5059217;28;20397;-63
2023/11/20 02:44:40;;;;;;;13.90;1.92;;;8.60;99.90;;;;;;5057593;28;20037;-64
2023/11/20 02:47:08;;;;;;;;;;;8.60;99.90;;;;;;5064607;28;20033;-64
2023/11/20 02:49:35;;;;;;;3.42;1.15;;;8.60;99.90;;;;;;5055514;28;19935;-64
2023/11/20 02:52:05;;;;;;;5.45;1.23;;;8.70;99.90;;;;;;5058155;28;20044;-63
2023/11/20 02:54:32;;;;;;;4.28;1.10;;;8.70;99.90;;;;;;5066922;28;20044;-63
2023/11/20 02:56:59;;;;;;;4.63;1.08;;;8.70;99.90;;;;;;5058271;28;20106;-63
2023/11/20 02:59:24;;;;;;;5.55;1.25;;;8.70;99.90;;;;;;5064024;28;20045;-63
2023/11/20 03:01:50;;;;;;;;;;;8.70;99.90;;;;;;5063255;28;20052;-64
2023/11/20 03:04:16;;;;;;;5.30;1.02;;;8.60;99.90;;;;;;5065805;28;20831;-63
2023/11/20 03:06:41;;;;;;;3.10;0.90;;;8.70;99.90;;;;;;5064537;28;20044;-63
2023/11/20 03:09:10;;;;;;;;;;;8.60;99.90;;;;;;5071614;28;20492;-63
2023/11/20 03:11:35;;;;;;;2.10;0.80;;;8.60;99.90;;;;;;5063701;28;19923;-64
2023/11/20 03:14:01;;;;;;;;;;;8.60;99.90;;;;;;5062540;28;20044;-64
2023/11/20 03:16:27;;;;;;;0.88;0.43;;;8.60;99.90;;;;;;5063865;28;19920;-64
2023/11/20 03:18:53;;;;;;;;;;;8.60;99.90;;;;;;5066675;28;20063;-63
2023/11/20 03:21:19;;;;;;;0.50;0.40;;;8.60;99.90;;;;;;5063313;28;19926;-60
2023/11/20 03:23:44;;;;;;;6.32;0.32;;;8.60;99.90;;;;;;5066143;28;20053;-61
2023/11/20 03:26:10;;;;;;;3.72;0.32;;;8.60;99.90;;;;;;5064414;28;20067;-62
2023/11/20 03:28:38;;;;;;;;;;;8.60;99.90;;;;;;5063918;28;20079;-65
2023/11/20 03:31:04;;;;;;;2.22;0.55;;;8.60;99.90;;;;;;5058290;28;20568;-64
2023/11/20 03:33:29;;;;;;;;;;;8.60;99.90;;;;;;5063828;28;20043;-64
2023/11/20 03:35:55;;;;;;;1.55;0.40;;;8.60;99.90;;;;;;5064339;28;19974;-63
2023/11/20 03:38:21;;;;;;;3.60;1.02;;;8.60;99.90;;;;;;5062933;28;20589;-63
2023/11/20 03:40:48;;;;;;;;;;;8.60;99.90;;;;;;5061873;28;20040;-64
2023/11/20 03:43:13;;;;;;;2.35;0.70;;;8.60;99.90;;;;;;5059406;28;19920;-63
2023/11/20 03:45:39;;;;;;;;;;;8.60;99.90;;;;;;5061387;28;20155;-64
2023/11/20 03:48:04;;;;;;;4.15;0.63;;;8.60;99.90;;;;;;5063252;28;19920;-64
2023/11/20 03:50:30;;;;;;;;;;;8.60;99.90;;;;;;5067049;28;20470;-63
2023/11/20 03:52:56;;;;;;;1.00;0.20;;;8.60;99.90;;;;;;5063130;28;20040;-63
2023/11/20 03:55:21;;;;;;;;;;;8.50;99.90;;;;;;5068418;28;20542;-63
2023/11/20 03:57:47;;;;;;;4.25;0.55;;;8.60;99.90;;;;;;5065494;28;19951;-64
2023/11/20 04:00:13;;;;;;;5.28;1.27;;;8.50;99.90;;;;;;5072503;28;20518;-65
2023/11/20 04:02:41;;;;;;;2.35;0.88;;;8.50;99.90;;;;;;5061258;28;20049;-65
2023/11/20 04:05:07;;;;;;;7.80;1.17;;;8.50;99.90;;;;;;5070007;28;20079;-64
2023/11/20 04:07:32;;;;;;;6.72;1.00;;;8.50;99.90;;;;;;5065060;28;20041;-64
2023/11/20 04:09:58;;;;;;;;;;;8.50;99.90;;;;;;5060925;28;20040;-64
2023/11/20 04:12:25;;;;;;;5.28;1.15;;;8.40;99.90;;;;;;5066777;28;19923;-63
2023/11/20 04:14:51;;;;;;;3.80;1.52;;;8.40;99.90;;;;;;5061518;28;20045;-63
2023/11/20 04:17:17;;;;;;;;;;;8.40;99.90;;;;;;5060422;28;20118;-63
2023/11/20 04:19:43;;;;;;;4.90;1.40;;;8.40;99.90;;;;;;5064476;28;19998;-64
2023/11/20 04:22:10;;;;;;;;;;;8.40;99.90;;;;;;5066273;28;20044;-63
2023/11/20 04:24:35;;;;;;;3.95;1.35;;;8.40;99.90;;;;;;5064654;28;20502;-62
2023/11/20 04:27:01;;;;;;;6.72;1.50;;;8.40;99.90;;;;;;5066871;28;20123;-63
2023/11/20 04:29:27;;;;;;;3.33;1.80;;;8.40;99.90;;;;;;5060469;28;20411;-62
2023/11/20 04:31:53;;;;;;;3.63;1.42;;;8.40;99.90;;;;;;5063426;28;20044;-62
2023/11/20 04:34:19;;;;;;;;;;;8.30;99.90;;;;;;5059193;28;20040;-63
2023/11/20 04:36:44;;;;;;;4.70;1.50;;;8.30;99.90;;;;;;5064559;28;19927;-64
2023/11/20 04:39:10;;;;;;;;;;;8.40;99.90;;;;;;5064952;28;20064;-64
2023/11/20 04:41:38;;;;;;;3.58;1.40;;;8.30;99.90;;;;;;5066632;28;19916;-64
2023/11/20 04:44:03;;;;;;;7.60;1.65;;;8.30;99.90;;;;;;5061357;28;20123;-61
2023/11/20 04:46:29;;;;;;;;;;;8.30;99.90;;;;;;5055941;28;20151;-63
2023/11/20 04:48:54;;;;;;;4.00;1.50;;;8.30;99.90;;;;;;5066113;28;19939;-63
2023/11/20 04:51:21;;;;;;;9.98;1.80;;;8.30;99.90;;;;;;5067457;28;20037;-62
2023/11/20 04:53:48;;;;;;;7.65;1.63;;;8.30;99.90;;;;;;5065448;28;20691;-64
2023/11/20 04:56:13;;;;;;;6.07;1.52;;;8.20;99.90;;;;;;5059091;28;20044;-64
2023/11/20 04:58:39;;;;;;;;;;;8.30;99.90;;;;;;5059315;28;20189;-63
2023/11/20 05:01:05;;;;;;;3.95;1.60;;;8.20;99.90;;;;;;5060146;28;19932;-62
2023/11/20 05:03:31;;;;;;;6.28;1.60;;;8.30;99.90;;;;;;5062442;28;20052;-62
2023/11/20 05:05:57;;;;;;;3.72;1.25;;;8.30;99.90;;;;;;5060111;28;20106;-61
2023/11/20 05:08:23;;;;;;;9.40;1.67;;;8.30;99.90;;;;;;5061367;28;20040;-64
2023/11/20 05:10:48;;;;;;;;;;;8.30;99.90;;;;;;5065430;28;20732;-63
2023/11/20 05:13:17;;;;;;;4.07;1.40;;;8.30;99.90;;;;;;5067811;28;19964;-64
2023/11/20 05:15:43;;;;;;;10.07;1.80;;;8.30;99.90;;;;;;5065034;28;20052;-63
2023/11/20 05:18:09;;;;;;;;;;;8.30;99.90;;;;;;5061477;28;20070;-63
2023/11/20 05:20:34;;;;;;;7.53;1.80;;;8.30;99.90;;;;;;5068031;28;20425;-63
2023/11/20 05:23:00;;;;;;;;;;;8.30;99.90;;;;;;5062044;28;20043;-63
2023/11/20 05:25:26;;;;;;;4.18;1.60;;;8.30;99.90;;;;;;5063515;28;19948;-63
2023/11/20 05:27:52;;;;;;;5.93;2.15;;;8.30;99.90;;;;;;5058811;28;20117;-64
2023/11/20 05:30:18;;;;;;;;;;;8.30;99.90;;;;;;5058070;28;20107;-63
2023/11/20 05:32:43;;;;;;;3.78;1.30;;;8.20;99.90;;;;;;5059405;28;19920;-64
2023/11/20 05:35:09;;;;;;;9.73;2.17;;;8.20;99.90;;;;;;5066340;28;20059;-64
2023/11/20 05:37:34;;;;;;;;;;;8.20;99.90;;;;;;5064660;28;20452;-62
2023/11/20 05:40:00;;;;;;;5.10;1.40;;;8.20;99.90;;;;;;5067026;28;20295;-64
2023/11/20 05:42:26;;;;;;;3.58;1.40;;;8.20;99.90;;;;;;5059088;28;20119;-63
2023/11/20 05:44:51;;;;;;;;;;;8.20;99.90;;;;;;5066231;28;20044;-62
2023/11/20 05:47:17;;;;;;;4.13;1.40;;;8.20;99.90;;;;;;5062668;28;19951;-62
2023/11/20 05:49:43;;;;;;;8.88;1.63;;;8.20;99.90;;;;;;5066003;28;20048;-62
2023/11/20 05:52:09;;;;;;;5.97;2.25;;;8.20;99.90;;;;;;5064702;28;20044;-63
2023/11/20 05:54:34;;;;;;;;;;;8.20;99.90;;;;;;5064438;28;20488;-62
2023/11/20 05:57:00;;;;;;;14.88;2.38;;;8.20;99.90;;;;;;5065790;28;19978;-63
2023/11/20 05:59:26;;;;;;;;;;;8.20;99.90;;;;;;5061378;28;20125;-62
2023/11/20 06:01:51;;;;;;;8.00;1.25;;;8.20;99.90;;;;;;5060267;28;20399;-63
2023/11/20 06:04:17;;;;;;;7.43;1.52;;;8.10;99.90;;;;;;5060892;28;20114;-63
2023/11/20 06:06:42;;;;;;;;;;;8.10;99.90;;;;;;5063286;28;20535;-62
2023/11/20 06:09:10;;;;;;;5.78;1.63;;;8.10;99.90;;;;;;5063815;28;20513;-63
2023/11/20 06:11:36;;;;;;;8.32;1.55;;;8.10;99.90;;;;;;5063681;28;20037;-62
2023/11/20 06:14:03;;;;;;;7.22;1.60;;;8.10;99.90;;;;;;5058646;28;20106;-59
2023/11/20 06:16:29;;;;;;;12.02;1.70;;;8.10;99.90;;;;;;5058263;28;20568;-61
2023/11/20 06:18:54;;;;;;;3.65;1.67;;;8.20;99.90;;;;;;5057720;28;20044;-66
2023/11/20 06:21:21;;;;;;;5.00;1.67;;;8.10;99.90;;;;;;5064000;28;20060;-67
2023/11/20 06:23:47;;;;;;;5.63;1.42;;;8.20;99.90;;;;;;5058161;28;20160;-68
2023/11/20 06:26:13;;;;;;;;;;;8.20;99.90;;;;;;5059593;28;20707;-64
2023/11/20 06:28:42;;;;;;;5.18;1.40;;;8.20;99.90;;;;;;5060674;28;20396;-65
2023/11/20 06:31:09;;;;;;;6.13;1.40;;;8.20;99.90;;;;;;5055040;28;20128;-65
2023/11/20 06:33:35;;;;;;;3.60;1.35;;;8.20;99.90;;;;;;5062104;28;20044;-60
2023/11/20 06:36:02;;;;;;;;;;;8.20;99.90;;;;;;5064432;28;20045;-62
2023/11/20 06:38:28;;;;;;;6.30;1.60;;;8.20;99.90;;;;;;5064296;28;19920;-62
2023/11/20 06:40:55;;;;;;;5.25;1.70;;;8.20;99.90;;;;;;5065075;28;20514;-64
2023/11/20 06:43:21;;;;;;;6.35;2.03;;;8.20;99.90;;;;;;5063947;28;20056;-63
2023/11/20 06:45:47;;;;;;;;;;;8.20;99.90;;;;;;5062440;28;20053;-64
2023/11/20 06:48:12;;;;;;;8.68;2.70;;;8.20;99.90;;;;;;5060843;28;20011;-66
2023/11/20 06:50:38;;;;;;;;;;;8.20;99.90;;;;;;5063129;28;20044;-64
2023/11/20 06:53:04;;;;;;;4.57;1.73;;;8.20;99.90;;;;;;5063287;28;19946;-63
2023/11/20 06:55:30;;;;;;;4.60;1.80;;;8.20;99.90;;;;;;5064312;28;20033;-63
2023/11/20 06:57:56;;;;;;;9.95;1.88;;;8.20;99.90;;;;;;5060658;28;20404;-64
2023/11/20 07:00:21;;;;;;;;;;;8.20;99.90;;;;;;5061888;28;20047;-65
2023/11/20 07:02:47;;;;;;;7.45;1.42;;;8.20;99.90;;;;;;5064221;28;19961;-64
2023/11/20 07:05:16;;;;;;;3.50;1.52;;;8.20;99.90;;;;;;5060484;28;20078;-65
2023/11/20 07:07:51;;;;;;;5.38;1.80;;;8.20;99.90;;;;;;5056073;28;20075;-64
2023/11/20 07:10:25;;;;;;;4.82;1.65;;;8.20;99.90;;;;;;5057166;28;20056;-64
2023/11/20 07:12:54;;;;;;;5.35;1.27;;;8.20;99.90;;;;;;5059594;28;20041;-63
2023/11/20 07:15:20;;;;;;;3.05;1.30;;;8.30;99.90;;;;;;5063240;28;20535;-63
2023/11/20 07:17:47;;;;;;;7.53;2.03;;;8.30;99.90;;;;;;5059686;28;20040;-65
2023/11/20 07:20:13;;;;;;;3.92;1.60;;;8.30;99.90;;;;;;5059951;28;20597;-63
2023/11/20 07:22:39;;;;;;;4.20;1.70;;;8.30;99.90;;;;;;5063515;28;20049;-64
2023/11/20 07:25:05;;;;;;;;;;;8.30;99.90;;;;;;5056983;28;20095;-64
2023/11/20 07:27:31;;;;;;;2.72;1.20;;;8.30;99.90;;;;;;5058518;28;19959;-63
2023/11/20 07:29:57;;;;;;;;;;;8.30;99.90;;;;;;5071766;28;20105;-63
2023/11/20 07:32:22;;;;;;;3.45;1.30;;;8.30;99.90;;;;;;5065313;28;20559;-63
2023/11/20 07:34:48;;;;;;;;;;;8.30;99.90;;;;;;5063821;28;20043;-64
2023/11/20 07:37:13;;;;;;;3.88;1.30;;;8.30;99.90;;;;;;5067150;28;19927;-64
2023/11/20 07:39:39;;;;;;;6.07;1.83;;;8.30;99.90;;;;;;5064252;28;20668;-63
2023/11/20 07:42:04;;;;;;;2.88;1.20;;;8.30;99.90;;;;;;5062642;28;20532;-64
2023/11/20 07:44:30;;;;;;;8.40;1.95;;;8.30;99.90;;;;;;5062787;28;20132;-64
2023/11/20 07:46:56;;;;;;;5.43;2.30;;;8.20;99.90;;;;;;5064054;28;20389;-64
2023/11/20 07:49:21;;;;;;;;;;;8.30;99.90;;;;;;5067517;28;20051;-64
2023/11/20 07:51:47;;;;;;;3.95;1.75;;;8.30;99.90;;;;;;5063266;28;19924;-65
2023/11/20 07:54:13;;;;;;;;;;;8.30;99.90;;;;;;5068703;28;20035;-64
2023/11/20 07:56:38;;;;;;;6.93;1.92;;;8.30;99.90;;;;;;5068740;28;19935;-64
2023/11/20 07:59:04;;;;;;;;;;;8.30;99.90;;;;;;5065906;28;20640;-64
2023/11/20 08:01:29;;;;;;;6.40;2.70;;;8.30;99.90;;;;;;5063962;28;19920;-64
2023/11/20 08:03:55;;;;;;;10.38;2.55;;;8.30;99.90;;;;;;5062700;28;20048;-64
2023/11/20 08:06:21;;;;;;;7.38;2.42;;;8.20;99.90;;;;;;5061303;28;20048;-63
2023/11/20 08:08:48;;;;;;;9.68;2.60;;;8.20;99.90;;;;;;5059469;28;20052;-64
2023/11/20 08:11:14;;;;;;;9.32;2.60;;;8.20;99.90;;;;;;5065420;28;20115;-64
2023/11/20 08:13:39;;;;;;;9.27;3.10;;;8.20;99.90;;;;;;5060609;28;20123;-64
2023/11/20 08:16:05;;;;;;;;;;;8.20;99.90;;;;;;5066992;28;20415;-64
2023/11/20 08:18:32;;;;;;;8.45;2.10;;;8.10;99.90;;;;;;5060451;28;20388;-63
2023/11/20 08:20:58;;;;;;;9.68;2.78;;;8.10;99.90;;;;;;5065621;28;20660;-64
2023/11/20 08:23:24;;;;;;;;;;;8.00;99.90;;;;;;5068764;28;20063;-61
2023/11/20 08:25:49;;;;;;;9.98;2.60;;;8.10;99.90;;;;;;5065750;28;19951;-64
2023/11/20 08:28:15;;;;;;;;;;;8.10;99.90;;;;;;5064815;28;20583;-64
2023/11/20 08:30:40;;;;;;;9.25;2.50;;;8.00;99.90;;;;;;5064962;28;19920;-64
2023/11/20 08:33:07;;;;;;;8.77;2.30;;;8.10;99.90;;;;;;5063844;28;20036;-65
2023/11/20 08:35:34;;;;;;;10.55;3.08;;;8.10;99.90;;;;;;5064820;28;20124;-64
2023/11/20 08:38:00;;;;;;;11.20;2.97;;;8.10;99.90;;;;;;5066378;28;20072;-63
2023/11/20 08:40:26;;;;;;;;;;;8.20;99.90;;;;;;5066978;28;20617;-64
2023/11/20 08:42:52;;;;;;;12.30;3.15;;;8.20;99.90;;;;;;5062881;28;20003;-64
2023/11/20 08:45:18;;;;;;;;;;;8.30;99.90;;;;;;5063605;28;20040;-63
2023/11/20 08:47:43;;;;;;;11.25;2.65;;;8.30;99.90;;;;;;5064093;28;19981;-64
2023/11/20 08:50:11;;;;;;;12.27;2.70;;;8.40;99.90;;;;;;5068932;28;20040;-64
2023/11/20 08:52:37;;;;;;;13.30;2.97;;;8.40;99.90;;;;;;5065065;28;20048;-63
2023/11/20 08:55:02;;;;;;;;;;;8.50;99.90;;;;;;5065246;28;20044;-63
2023/11/20 08:57:28;;;;;;;13.73;3.22;;;8.60;99.90;;;;;;5063798;28;19924;-63
2023/11/20 08:59:54;;;;;;;13.70;3.35;;;8.70;99.90;;;;;;5066332;28;20028;-63
2023/11/20 09:02:19;;;;;;;;;;;8.80;99.90;;;;;;5058408;28;20401;-64
2023/11/20 09:04:47;;;;;;;12.73;3.10;;;8.90;99.90;;;;;;5061501;28;19928;-63
2023/11/20 09:07:13;;;;;;;11.85;3.20;;;9.00;99.90;;;;;;5063073;28;20036;-63
2023/11/20 09:09:39;;;;;;;;;;;9.00;99.90;;;;;;5058930;28;20087;-64
2023/11/20 09:12:05;;;;;;;13.50;3.42;;;9.10;99.90;;;;;;5063316;28;20152;-63
2023/11/20 09:14:30;;;;;;;;;;;9.20;99.90;;;;;;5063508;28;20083;-64
2023/11/20 09:16:56;;;;;;;12.68;3.08;;;9.30;99.90;;;;;;5063833;28;19916;-64
2023/11/20 09:19:23;;;;;;;12.63;2.90;;;9.20;99.90;;;;;;5063776;28;20052;-64
2023/11/20 09:21:49;;;;;;;15.00;2.70;;;9.10;99.90;;;;;;5061842;28;20063;-63
2023/11/20 09:24:14;;;;;;;;;;;9.10;99.90;;;;;;5064936;28;20489;-63
2023/11/20 09:26:44;;;;;;;14.85;3.50;;;9.20;99.90;;;;;;5068443;28;19919;-63
2023/11/20 09:29:10;;;;;;;10.50;3.05;;;9.10;99.90;;;;;;5062807;28;20049;-64
2023/11/20 09:31:36;;;;;;;11.07;2.80;;;9.10;99.90;;;;;;5050474;28;20118;-63
2023/11/20 09:34:02;;;;;;;14.63;3.05;;;9.00;99.90;;;;;;5041885;28;20055;-63
2023/11/20 09:36:29;;;;;;;14.75;3.15;;;9.00;99.90;;;;;;5045309;28;20040;-63
2023/11/20 09:38:54;;;;;;;11.98;3.20;;;9.20;99.90;;;;;;5044403;28;20052;-63
2023/11/20 09:41:20;;;;;;;;;;;9.20;99.90;;;;;;5044184;28;20037;-63
2023/11/20 09:43:47;;;;;;;8.95;3.00;;;9.10;99.90;;;;;;5040964;28;19921;-63
2023/11/20 09:46:14;;;;;;;10.93;3.28;;;9.20;99.90;;;;;;5042662;28;20056;-63
2023/11/20 09:48:43;;;;;;;13.50;3.47;;;9.20;99.90;;;;;;5042815;28;20041;-63
2023/11/20 09:51:10;;;;;;;11.07;3.15;;;9.30;99.90;;;;;;5042546;28;20033;-63
2023/11/20 09:53:39;;;;;;;14.23;3.15;;;9.50;99.90;;;;;;5038235;28;20055;-63
2023/11/20 09:56:09;;;;;;;12.95;3.72;;;9.70;99.90;;;;;;5040713;28;20045;-63
2023/11/20 09:58:36;;;;;;;11.82;2.95;;;9.70;99.90;;;;;;5046246;28;20049;-63
2023/11/20 10:01:07;;;;;;;14.40;3.00;;;9.60;99.90;;;;;;5041970;28;20033;-63
2023/11/20 10:03:36;;;;;;;15.90;3.10;;;9.50;99.90;;;;;;5044337;28;20539;-63
2023/11/20 10:06:05;;;;;;;14.43;2.65;;;9.40;99.90;;;;;;5043769;28;20041;-63
2023/11/20 10:08:34;;;;;;;10.88;3.20;;;9.30;99.90;;;;;;5043771;28;20041;-63
2023/11/20 10:11:00;;;;;;;10.50;2.88;;;9.30;99.90;;;;;;5044445;28;20048;-62
2023/11/20 10:13:29;;;;;;;;;;;9.40;99.90;;;;;;5045652;28;20045;-63
2023/11/20 10:15:56;;;;;;;12.98;3.40;;;9.40;99.90;;;;;;5044505;28;19923;-63
2023/11/20 10:18:22;;;;;;;13.10;2.50;;;9.50;99.90;;;;;;5042965;28;20505;-62
2023/11/20 10:20:48;;;;;;;;;;;9.70;99.90;;;;;;5041594;28;20041;-63
2023/11/20 10:23:15;;;;;;;14.45;3.03;;;9.80;99.90;;;;;;5042770;28;19982;-63
2023/11/20 10:25:45;;;;;;;8.02;1.95;;;9.90;99.90;;;;;;5044814;28;20057;-63
2023/11/20 10:28:13;;;;;;;19.50;3.17;;;9.80;99.90;;;;;;5042590;28;20688;-63
2023/11/20 10:30:45;;;;;;;12.68;2.40;;;9.80;99.90;;;;;;5039819;28;20135;-63
2023/11/20 10:33:18;;;;;;;14.60;2.88;;;9.80;99.90;;;;;;5040999;28;20136;-62
2023/11/20 10:35:48;;;;;;;13.43;3.05;;;9.80;99.90;;;;;;5038260;28;20749;-63
2023/11/20 10:38:14;;;;;;;13.35;3.25;;;9.90;99.90;;;;;;5034730;28;20112;-63
2023/11/20 10:40:44;;;;;;;;;;;10.00;99.90;;;;;;5041109;28;20167;-63
2023/11/20 10:43:10;;;;;;;11.77;2.35;;;10.10;99.90;;;;;;5038354;28;19924;-63
2023/11/20 10:45:37;;;;;;;12.30;2.60;;;10.20;99.90;;;;;;5049693;28;20613;-63
2023/11/20 10:48:06;;;;;;;12.63;2.45;;;10.20;99.90;;;;;;5041709;28;20794;-63
2023/11/20 10:50:35;;;;;;;16.38;3.33;;;10.30;99.90;;;;;;5044663;28;20116;-63
2023/11/20 10:53:06;;;;;;;14.13;2.60;;;10.20;99.90;;;;;;5042500;28;20041;-62
2023/11/20 10:55:42;;;;;;;10.40;2.85;;;10.20;99.90;;;;;;5044782;28;20124;-63
2023/11/20 10:58:14;;;;;;;13.05;2.28;;;10.20;99.90;;;;;;5044617;28;20381;-63
2023/11/20 11:00:40;;;;;;;13.57;2.60;;;10.20;99.90;;;;;;5041364;28;20070;-63
2023/11/20 11:03:09;;;;;;;13.35;2.25;;;10.10;99.90;;;;;;5062562;28;20032;-62
2023/11/20 11:05:43;;;;;;;9.13;2.08;;;10.10;99.90;;;;;;5063599;28;20050;-63
2023/11/20 11:08:11;;;;;;;14.73;2.28;;;10.10;99.90;;;;;;5061252;28;20044;-63
2023/11/20 11:10:41;;;;;;;11.05;1.85;;;10.10;99.90;;;;;;5063808;28;20036;-62
2023/11/20 11:13:18;;;;;;;15.85;2.88;;;10.00;99.90;;;;;;5063412;28;20033;-63
2023/11/20 11:15:47;;;;;;;15.95;2.75;;;9.80;99.90;;;;;;5064075;28;20396;-62
2023/11/20 11:18:15;;;;;;;16.25;2.90;;;9.70;99.90;;;;;;5058764;28;20102;-65
2023/11/20 11:20:54;;;;;;;10.55;1.70;;;9.60;99.90;;;;;;5062051;28;20108;-63
2023/11/20 11:23:43;;;;;;;10.27;1.98;;;9.50;99.90;;;;;;5055627;28;20097;-63
2023/11/20 11:26:42;;;;;;;14.20;1.90;;;9.40;99.90;;;;;;5046796;28;20609;-63
2023/11/20 11:29:14;;;;;;;9.15;2.25;;;9.50;99.90;;;;;;5055291;28;20528;-63
2023/11/20 11:32:00;;;;;;;12.48;2.15;;;9.60;99.90;;;;;;5056182;28;20120;-62
2023/11/20 11:34:28;;;;;;;12.43;2.53;;;9.60;99.90;;;;;;5064325;28;20059;-63
2023/11/20 11:37:21;;;;;;;9.90;2.28;;;9.60;99.90;;;;;;5052286;28;20040;-63
2023/11/20 11:39:58;;;;;;;12.60;2.53;;;9.60;99.90;;;;;;5055405;28;20054;-62
2023/11/20 11:42:37;;;;;;;;;;;9.60;99.90;;;;;;5058918;28;20088;-63
2023/11/20 11:45:31;;;;;;;15.43;2.60;;;9.60;99.90;;;;;;5053749;28;20061;-64
2023/11/20 11:47:58;;;;;;;17.05;2.78;;;9.60;99.90;;;;;;5053968;28;20127;-62
2023/11/20 11:50:26;;;;;;;11.70;2.05;;;9.60;99.90;;;;;;5059529;28;20123;-63
2023/11/20 11:52:55;;;;;;;11.38;3.00;;;9.50;99.90;;;;;;5057523;28;20051;-63
2023/11/20 11:55:27;;;;;;;14.05;2.67;;;9.40;99.90;;;;;;5061754;28;20036;-64
2023/11/20 11:58:01;;;;;;;12.63;2.50;;;9.30;99.90;;;;;;5058849;28;20400;-63
2023/11/20 12:00:27;;;;;;;12.77;2.55;;;9.30;99.90;;;;;;5055911;28;20079;-64
2023/11/20 12:02:55;;;;;;;16.30;2.30;;;9.30;99.90;;;;;;5066285;28;20036;-63
2023/11/20 12:05:21;;;;;;;8.38;1.50;;;9.20;99.90;;;;;;5065112;28;20044;-63
2023/11/20 12:07:53;;;;;;;4.78;1.30;;;9.20;99.90;;;;;;5056433;28;20124;-63
2023/11/20 12:10:41;;;;;;;5.50;1.13;;;9.10;99.90;;;;;;5055171;28;20169;-63
2023/11/20 12:13:10;;;;;;;2.17;0.93;;;9.10;99.90;;;;;;5057353;28;20040;-64
2023/11/20 12:15:40;;;;;;;3.20;1.10;;;9.00;99.90;;;;;;5063719;28;20040;-64
2023/11/20 12:18:31;;;;;;;5.78;1.13;;;9.00;99.90;;;;;;5059206;28;20028;-64
2023/11/20 12:21:00;;;;;;;6.75;1.25;;;9.10;99.90;;;;;;5062823;28;20127;-64
2023/11/20 12:23:34;;;;;;;2.75;1.00;;;9.10;99.90;;;;;;5063189;28;20044;-63
2023/11/20 12:26:11;;;;;;;5.70;1.13;;;9.10;99.90;;;;;;5065765;28;20112;-64
2023/11/20 12:28:38;;;;;;;3.28;1.13;;;9.10;99.90;;;;;;5066832;28;20048;-63
2023/11/20 12:31:04;;;;;;;5.82;1.25;;;9.10;99.90;;;;;;5061208;28;20037;-64
2023/11/20 12:33:31;;;;;;;4.55;1.40;;;9.10;99.90;;;;;;5059121;28;20047;-64
2023/11/20 12:35:58;;;;;;;6.95;1.45;;;9.20;99.90;;;;;;5056499;28;20059;-65
2023/11/20 12:38:24;;;;;;;4.78;1.50;;;9.20;99.90;;;;;;5059977;28;20049;-63
2023/11/20 12:40:53;;;;;;;;;;;9.20;99.90;;;;;;5055704;28;20037;-63
2023/11/20 12:43:19;;;;;;;6.65;1.50;;;9.20;99.90;;;;;;5054707;28;20011;-63
2023/11/20 12:45:46;;;;;;;3.30;1.35;;;9.20;99.90;;;;;;5050953;28;20045;-64
2023/11/20 12:48:11;;;;;;;8.35;1.77;;;9.10;99.90;;;;;;5057982;28;20405;-63
2023/11/20 12:50:37;;;;;;;;;;;9.10;99.90;;;;;;5051423;28;20547;-64
2023/11/20 12:53:04;;;;;;;5.05;1.77;;;9.10;99.90;;;;;;5057929;28;20504;-64
2023/11/20 12:55:30;;;;;;;4.88;1.83;;;9.10;99.90;;;;;;5055106;28;20048;-63
2023/11/20 12:57:59;;;;;;;4.95;1.50;;;9.10;99.90;;;;;;5057379;28;20130;-63
2023/11/20 13:00:26;;;;;;;5.65;1.80;;;9.10;99.90;;;;;;5053663;28;20068;-64
2023/11/20 13:02:54;;;;;;;4.30;1.92;;;9.10;99.90;;;;;;5059840;28;20048;-63
2023/11/20 13:05:30;;;;;;;8.57;1.90;;;9.10;99.90;;;;;;5054298;28;20135;-62
2023/11/20 13:08:01;;;;;;;6.07;1.58;;;9.00;99.90;;;;;;5061930;28;20066;-62
2023/11/20 13:10:28;;;;;;;5.43;1.55;;;9.00;99.90;;;;;;5053607;28;20053;-63
2023/11/20 13:12:54;;;;;;;7.95;2.10;;;9.00;99.90;;;;;;5050418;28;20025;-62
2023/11/20 13:15:24;;;;;;;5.07;1.88;;;8.90;99.90;;;;;;5055044;28;20044;-63